Allendale, New Jersey
Current Conditions -  °F | °C
As of 6:12 PM on Wednesday 26 Nov 2014 (Local Time) from KTEB Reporting Station
Light Rain Light Rain  
Wind Chill: -2°   Ceiling: 3200
Heat Index:   Visibility: 3mi
Dew Point:   Wind: 9mph
Humidity: 87%   Direction: 350°N
Pressure: 29.8"   Gusts: 18mph
Location:  41.03°N, 74.14°W
Report Text: KTEB 262312Z 35008G16KT 3SM -RA SCT012 OVC032 02/00 A2980 RMK AO2 P0001 $
Loading
Personal Weather Stations






























Interactive Weather Map New forecast layout! Learn more

10-Day Weather Forecast

Advertisements
Track Severe Weather on mobile